Aérodrome :
LOGIN :

S'inscrire | Disclaimer

   EN    FR    IT 

 










Légende :    VFR   VFR Marginal   IFR   IFR Intensif   IFR Très Intensif
Visi : 
Plafond : 
>= 8 km
>= 3000ft
5 à 8 km
1000 à 3000 ft
1500m à 5 km
500 à 1000 ft
800 à 1500m
200 à 500 ft
< 800m
< 200 ft
Symboles :   Orages  Brouillard  Fortes neiges  Fortes précipitations  Vent > 20 kt
SIGMETs :   Divers  Orages  Givrage  Turbulence  Onde Orograph.  Cendres Volcan.







- Altitude de l'aérodrome : 56 ft
- Code IATA : BZR
- Voir les cartes d'approche


LFMU - Beziers / Vias

DERNIER METAR :
  • 152300Z AUTO 06005KT 9999 OVC020 05/03 Q1019

METARs EXPIRÉS :
  • 152230Z AUTO 08004KT 9999 -DZ OVC020 05/03 Q1019
  • 152200Z AUTO 06005KT 9999 OVC020 06/03 Q1019
  • 152130Z AUTO 04004KT 9999 OVC021 05/03 Q1019
  • 152100Z AUTO VRB02KT 9999 OVC021 05/03 Q1019
  • 152030Z AUTO 04003KT 9999 BKN021 OVC035 05/03 Q1019

TAF TAF LFMU
Valide du 15 à 15h jusqu'au 16 à 15h UTC


151400Z 1515/1615 VRB05KT CAVOK
BECMG 1515/1517 BKN020
TEMPO 1518/1615 RA OVC010
ATIS : +33 4 67 90 88 88
Pas de NOTAMs connus pour ce terrain.



MET'MAP, la Météo Aéronautique d'un coup d'oeil ! - Copyright ORBIFLY Décembre 2007 - Disclaimer

ORBIFLY MET'MAP TEAM :

Programmation & Développement : Alexandra Zaïnal
Conception & Développement : Baudouin d'Aumeries
Co-Programmation & Développement : Marc-Olivier Méhu
Soutien technique & logistique : Manuel Goepfert

Contact : metmap@orbifly.com




SOURCES & CREDITS :

   NOAA